createdAt,value
2018-10-12T00:00:01.198Z,29.35
2018-10-12T00:00:32.329Z,31.33
2018-10-12T00:01:03.451Z,33.58
2018-10-12T00:01:34.618Z,30.50
2018-10-12T00:02:05.812Z,33.70
2018-10-12T00:02:36.914Z,33.53
2018-10-12T00:03:08.038Z,30.65
2018-10-12T00:03:39.141Z,31.20
2018-10-12T00:04:10.297Z,30.60
2018-10-12T00:04:41.446Z,27.87
2018-10-12T00:05:12.555Z,31.35
2018-10-12T00:05:43.726Z,27.17
2018-10-12T00:06:14.834Z,27.37
2018-10-12T00:06:45.939Z,28.07
2018-10-12T00:07:17.112Z,29.18
2018-10-12T00:07:48.220Z,30.77
2018-10-12T00:08:19.318Z,30.55
2018-10-12T00:08:50.473Z,27.37
2018-10-12T00:09:21.591Z,28.00
2018-10-12T00:09:52.701Z,25.23
2018-10-12T00:10:23.805Z,27.77
2018-10-12T00:10:54.911Z,28.45
2018-10-12T00:11:26.012Z,28.75
2018-10-12T00:11:57.137Z,28.80
2018-10-12T00:12:28.321Z,28.70
2018-10-12T00:12:59.469Z,29.65
2018-10-12T00:13:30.589Z,28.42
2018-10-12T00:14:01.722Z,29.57
2018-10-12T00:14:32.863Z,27.67
2018-10-12T00:15:04.005Z,32.28
2018-10-12T00:15:35.178Z,29.72
2018-10-12T00:16:06.282Z,26.95
2018-10-12T00:16:37.413Z,29.27
2018-10-12T00:17:08.531Z,29.07
2018-10-12T00:17:39.652Z,30.27
2018-10-12T00:18:10.769Z,31.15
2018-10-12T00:18:41.879Z,30.37
2018-10-12T00:19:13.030Z,31.05
2018-10-12T00:19:44.130Z,29.30
2018-10-12T00:20:15.238Z,28.95
2018-10-12T00:20:46.379Z,30.65
2018-10-12T00:21:17.523Z,32.78
2018-10-12T00:21:48.652Z,31.27
2018-10-12T00:22:19.759Z,30.77
2018-10-12T00:22:50.857Z,31.97
2018-10-12T00:23:21.965Z,33.65
2018-10-12T00:23:53.124Z,33.23
2018-10-12T00:24:24.274Z,30.57
2018-10-12T00:24:55.449Z,30.05
2018-10-12T00:25:26.564Z,31.95
2018-10-12T00:25:57.694Z,31.30
2018-10-12T00:26:28.812Z,27.90
2018-10-12T00:26:59.961Z,33.63
2018-10-12T00:27:31.062Z,30.68
2018-10-12T00:28:02.169Z,35.63
2018-10-12T00:28:33.287Z,30.30
2018-10-12T00:29:04.422Z,31.62
2018-10-12T00:29:35.561Z,32.23
2018-10-12T00:30:06.669Z,32.50
2018-10-12T00:30:37.836Z,35.30
2018-10-12T00:31:08.999Z,31.70
2018-10-12T00:31:40.104Z,30.23
2018-10-12T00:32:11.229Z,32.42
2018-10-12T00:32:42.339Z,35.08
2018-10-12T00:33:13.466Z,31.87
2018-10-12T00:33:44.587Z,31.10
2018-10-12T00:34:15.691Z,34.48
2018-10-12T00:34:46.850Z,33.90
2018-10-12T00:35:17.983Z,30.40
2018-10-12T00:35:49.106Z,33.48
2018-10-12T00:36:20.277Z,34.98
2018-10-12T00:36:51.458Z,32.53
2018-10-12T00:37:22.567Z,32.50
2018-10-12T00:37:53.702Z,31.90
2018-10-12T00:38:24.820Z,34.33
2018-10-12T00:38:55.945Z,35.25
2018-10-12T00:39:27.045Z,37.65
2018-10-12T00:39:58.227Z,34.92
2018-10-12T00:40:29.343Z,37.28
2018-10-12T00:41:00.481Z,36.35
2018-10-12T00:41:31.605Z,33.20
2018-10-12T00:42:02.721Z,36.40
2018-10-12T00:42:33.858Z,33.08
2018-10-12T00:43:04.957Z,35.88
2018-10-12T00:43:36.073Z,38.28
2018-10-12T00:44:07.207Z,38.50
2018-10-12T00:44:38.369Z,35.75
2018-10-12T00:45:09.580Z,36.50
2018-10-12T00:45:40.687Z,36.85
2018-10-12T00:46:11.795Z,35.25
2018-10-12T00:46:42.951Z,37.00
2018-10-12T00:47:14.211Z,44.00
2018-10-12T00:47:45.328Z,44.13
2018-10-12T00:48:16.431Z,39.55
2018-10-12T00:48:47.574Z,45.10
2018-10-12T00:49:18.735Z,40.95
2018-10-12T00:49:49.960Z,39.78
2018-10-12T00:50:21.012Z,41.48
2018-10-12T00:50:52.120Z,43.10
2018-10-12T00:51:23.276Z,38.70
2018-10-12T00:51:54.392Z,41.68
2018-10-12T00:52:25.519Z,40.17
2018-10-12T00:52:56.645Z,40.55
2018-10-12T00:53:27.752Z,42.95
2018-10-12T00:53:58.863Z,40.00
2018-10-12T00:54:29.982Z,40.70
2018-10-12T00:55:01.130Z,36.98
2018-10-12T00:55:32.242Z,44.08
2018-10-12T00:56:03.358Z,39.15
2018-10-12T00:56:34.471Z,37.73
2018-10-12T00:57:05.608Z,42.60
2018-10-12T00:57:36.728Z,42.75
2018-10-12T00:58:07.838Z,39.15
2018-10-12T00:58:38.936Z,43.52
2018-10-12T00:59:10.108Z,41.68
2018-10-12T00:59:41.240Z,42.20
2018-10-12T01:00:12.374Z,39.08
2018-10-12T01:00:43.489Z,40.73
2018-10-12T01:01:14.590Z,39.63
2018-10-12T01:01:45.698Z,41.40
2018-10-12T01:02:16.833Z,42.17
2018-10-12T01:02:48.009Z,43.33
2018-10-12T01:03:19.151Z,40.28
2018-10-12T01:03:50.254Z,40.63
2018-10-12T01:04:21.386Z,39.08
2018-10-12T01:04:52.505Z,41.30
2018-10-12T01:05:23.636Z,39.98
2018-10-12T01:05:54.747Z,43.92
2018-10-12T01:06:25.930Z,43.78
2018-10-12T01:06:57.053Z,41.60
2018-10-12T01:07:28.158Z,41.77
2018-10-12T01:07:59.308Z,40.83
2018-10-12T01:08:30.405Z,45.05
2018-10-12T01:09:01.526Z,37.80
2018-10-12T01:09:32.699Z,39.10
2018-10-12T01:10:03.812Z,38.50
2018-10-12T01:10:34.938Z,38.02
2018-10-12T01:11:06.047Z,46.70
2018-10-12T01:11:37.174Z,44.50
2018-10-12T01:12:08.331Z,40.50
2018-10-12T01:12:39.482Z,40.75
2018-10-12T01:13:10.591Z,43.05
2018-10-12T01:13:41.711Z,41.90
2018-10-12T01:14:12.850Z,42.13
2018-10-12T01:14:44.007Z,52.27
2018-10-12T01:15:15.113Z,50.10
2018-10-12T01:15:46.217Z,46.98
2018-10-12T01:16:17.319Z,47.40
2018-10-12T01:16:48.427Z,48.50
2018-10-12T01:17:19.631Z,42.85
2018-10-12T01:17:50.771Z,42.67
2018-10-12T01:18:21.883Z,44.48
2018-10-12T01:18:52.990Z,43.13
2018-10-12T01:19:24.099Z,46.35
2018-10-12T01:19:55.243Z,39.73
2018-10-12T01:20:26.351Z,46.20
2018-10-12T01:20:57.463Z,46.20
2018-10-12T01:21:28.615Z,41.08
2018-10-12T01:21:59.749Z,42.98
2018-10-12T01:22:30.853Z,38.67
2018-10-12T01:23:01.971Z,44.48
2018-10-12T01:23:33.083Z,42.58
2018-10-12T01:24:04.182Z,40.73
2018-10-12T01:24:35.286Z,39.88
2018-10-12T01:25:06.463Z,40.08
2018-10-12T01:25:37.596Z,39.45
2018-10-12T01:26:08.741Z,43.70
2018-10-12T01:26:39.862Z,39.50
2018-10-12T01:27:11.005Z,41.10
2018-10-12T01:27:42.138Z,40.03
2018-10-12T01:28:13.280Z,39.40
2018-10-12T01:28:44.414Z,40.60
2018-10-12T01:29:15.526Z,36.58
2018-10-12T01:29:46.636Z,40.40
2018-10-12T01:30:17.793Z,41.88
2018-10-12T01:30:48.915Z,44.00
2018-10-12T01:31:20.194Z,40.43
2018-10-12T01:31:51.321Z,40.10
2018-10-12T01:32:22.442Z,41.58
2018-10-12T01:32:53.574Z,41.85
2018-10-12T01:33:24.685Z,40.52
2018-10-12T01:33:55.862Z,42.10
2018-10-12T01:34:27.015Z,40.63
2018-10-12T01:34:58.152Z,43.68
2018-10-12T01:35:29.305Z,38.88
2018-10-12T01:36:00.405Z,39.30
2018-10-12T01:36:31.518Z,40.52
2018-10-12T01:37:02.657Z,41.08
2018-10-12T01:37:33.756Z,43.30
2018-10-12T01:38:04.861Z,42.70
2018-10-12T01:38:35.962Z,42.80
2018-10-12T01:39:07.143Z,43.40
2018-10-12T01:39:38.246Z,43.17
2018-10-12T01:40:09.370Z,44.40
2018-10-12T01:40:40.517Z,43.55
2018-10-12T01:41:11.650Z,41.00
2018-10-12T01:41:42.767Z,41.05
2018-10-12T01:42:13.917Z,40.70
2018-10-12T01:42:45.027Z,40.00
2018-10-12T01:43:16.161Z,44.00
2018-10-12T01:43:47.271Z,39.73
2018-10-12T01:44:18.413Z,37.30
2018-10-12T01:44:49.545Z,43.55
2018-10-12T01:45:20.658Z,45.50
2018-10-12T01:45:51.777Z,39.78
2018-10-12T01:46:22.906Z,42.60
2018-10-12T01:46:54.013Z,40.90
2018-10-12T01:47:25.182Z,40.85
2018-10-12T01:47:56.285Z,43.52
2018-10-12T01:48:27.390Z,41.20
2018-10-12T01:48:58.491Z,42.43
2018-10-12T01:49:29.586Z,41.13
2018-10-12T01:50:00.714Z,43.45
2018-10-12T01:50:31.867Z,41.33
2018-10-12T01:51:02.996Z,47.75
2018-10-12T01:51:34.159Z,44.65
2018-10-12T01:52:05.269Z,40.40
2018-10-12T01:52:36.398Z,42.20
2018-10-12T01:53:07.635Z,42.78
2018-10-12T01:53:38.743Z,39.25
2018-10-12T01:54:09.880Z,43.33
2018-10-12T01:54:40.990Z,46.13
2018-10-12T01:55:12.127Z,48.13
2018-10-12T01:55:43.234Z,46.15
2018-10-12T01:56:14.408Z,46.53
2018-10-12T01:56:45.568Z,43.15
2018-10-12T01:57:16.673Z,48.38
2018-10-12T01:57:47.865Z,43.75
2018-10-12T01:58:19.030Z,47.48
2018-10-12T01:58:50.135Z,44.83
2018-10-12T01:59:21.247Z,45.00
2018-10-12T01:59:52.351Z,41.15
2018-10-12T02:00:23.466Z,40.23
2018-10-12T02:00:54.579Z,39.48
2018-10-12T02:01:25.709Z,41.68
2018-10-12T02:01:56.889Z,44.33
2018-10-12T02:02:28.055Z,41.85
2018-10-12T02:02:59.157Z,43.35
2018-10-12T02:03:30.254Z,42.15
2018-10-12T02:04:01.375Z,46.23
2018-10-12T02:04:32.483Z,43.30
2018-10-12T02:05:03.589Z,49.93
2018-10-12T02:05:34.697Z,47.75
2018-10-12T02:06:05.825Z,44.75
2018-10-12T02:06:36.929Z,44.35
2018-10-12T02:07:08.097Z,42.95
2018-10-12T02:07:39.189Z,45.15
2018-10-12T02:08:10.329Z,47.25
2018-10-12T02:08:41.453Z,48.35
2018-10-12T02:09:12.577Z,46.45
2018-10-12T02:09:43.676Z,48.45
2018-10-12T02:10:14.851Z,45.15
2018-10-12T02:10:45.959Z,44.58
2018-10-12T02:11:17.094Z,46.88
2018-10-12T02:11:48.211Z,50.03
2018-10-12T02:12:19.344Z,43.08
2018-10-12T02:12:50.489Z,50.52
2018-10-12T02:13:21.636Z,49.53
2018-10-12T02:13:52.794Z,49.05
2018-10-12T02:14:23.954Z,48.20
2018-10-12T02:14:55.075Z,43.08
2018-10-12T02:15:26.176Z,42.25
2018-10-12T02:15:57.284Z,50.12
2018-10-12T02:16:28.387Z,45.38
2018-10-12T02:16:59.498Z,39.55
2018-10-12T02:17:30.604Z,41.18
2018-10-12T02:18:01.702Z,40.98
2018-10-12T02:18:32.856Z,40.63
2018-10-12T02:19:03.997Z,45.58
2018-10-12T02:19:35.138Z,42.75
2018-10-12T02:20:06.239Z,43.68
2018-10-12T02:20:37.373Z,42.13
2018-10-12T02:21:08.482Z,42.73
2018-10-12T02:21:39.611Z,40.83
2018-10-12T02:22:10.709Z,40.10
2018-10-12T02:22:41.826Z,47.38
2018-10-12T02:23:12.932Z,41.20
2018-10-12T02:23:44.082Z,40.88
2018-10-12T02:24:15.225Z,41.15
2018-10-12T02:24:47.032Z,38.53
2018-10-12T02:25:18.190Z,41.35
2018-10-12T02:25:49.298Z,37.28
2018-10-12T02:26:20.406Z,40.90
2018-10-12T02:26:51.577Z,40.43
2018-10-12T02:27:22.739Z,40.48
2018-10-12T02:27:53.889Z,39.85
2018-10-12T02:28:25.000Z,38.78
2018-10-12T02:28:56.156Z,40.35
2018-10-12T02:29:27.274Z,43.68
2018-10-12T02:29:58.402Z,40.03
2018-10-12T02:30:29.540Z,43.23
2018-10-12T02:31:00.694Z,45.05
2018-10-12T02:31:31.789Z,39.38
2018-10-12T02:32:02.906Z,35.65
2018-10-12T02:32:34.035Z,34.05
2018-10-12T02:33:05.134Z,39.75
2018-10-12T02:33:36.243Z,38.28
2018-10-12T02:34:07.369Z,37.42
2018-10-12T02:34:38.466Z,39.90
2018-10-12T02:35:09.662Z,40.45
2018-10-12T02:35:40.793Z,40.15
2018-10-12T02:36:11.897Z,38.95
2018-10-12T02:36:42.998Z,38.92
2018-10-12T02:37:14.103Z,37.78
2018-10-12T02:37:45.219Z,41.02
2018-10-12T02:38:16.328Z,38.10
2018-10-12T02:38:47.445Z,37.93
2018-10-12T02:39:55.935Z,38.88
2018-10-12T02:40:27.079Z,35.35
2018-10-12T02:40:58.206Z,34.20
2018-10-12T02:41:29.311Z,40.05
2018-10-12T02:42:00.459Z,34.85
2018-10-12T02:42:31.578Z,34.63
2018-10-12T02:43:02.683Z,35.03
2018-10-12T02:43:33.810Z,40.05
2018-10-12T02:44:04.950Z,36.63
2018-10-12T02:44:36.093Z,36.25
2018-10-12T02:45:07.217Z,37.73
2018-10-12T02:45:38.327Z,38.80
2018-10-12T02:46:09.444Z,35.20
2018-10-12T02:46:40.568Z,38.35
2018-10-12T02:47:11.681Z,35.98
2018-10-12T02:47:42.797Z,34.60
2018-10-12T02:48:13.951Z,39.48
2018-10-12T02:48:45.109Z,33.88
2018-10-12T02:49:16.214Z,36.33
2018-10-12T02:49:47.335Z,35.00
2018-10-12T02:50:18.448Z,34.92
2018-10-12T02:50:49.564Z,34.40
2018-10-12T02:51:20.671Z,35.65
2018-10-12T02:51:51.796Z,36.80
2018-10-12T02:52:22.925Z,32.60
2018-10-12T02:52:54.028Z,34.45
2018-10-12T02:53:25.172Z,36.42
2018-10-12T02:53:56.344Z,33.45
2018-10-12T02:54:27.471Z,34.08
2018-10-12T02:54:58.606Z,34.20
2018-10-12T02:55:29.738Z,38.58
2018-10-12T02:56:00.845Z,38.00
2018-10-12T02:56:31.942Z,38.90
2018-10-12T02:57:03.051Z,35.30
2018-10-12T02:57:34.192Z,33.85
2018-10-12T02:58:05.338Z,34.58
2018-10-12T02:58:36.471Z,37.90
2018-10-12T02:59:07.603Z,38.15
2018-10-12T02:59:38.741Z,42.62
2018-10-12T03:00:09.863Z,34.53
2018-10-12T03:00:40.969Z,34.50
2018-10-12T03:01:12.074Z,38.48
2018-10-12T03:01:43.184Z,35.17
2018-10-12T03:02:14.285Z,35.43
2018-10-12T03:02:45.405Z,34.55
2018-10-12T03:03:16.539Z,38.45
2018-10-12T03:03:47.690Z,37.95
2018-10-12T03:04:18.809Z,37.23
2018-10-12T03:04:49.950Z,35.20
2018-10-12T03:05:21.108Z,40.73
2018-10-12T03:05:52.254Z,38.38
2018-10-12T03:06:23.354Z,40.95
2018-10-12T03:06:54.453Z,37.93
2018-10-12T03:07:25.549Z,35.80
2018-10-12T03:07:56.648Z,43.60
2018-10-12T03:08:27.746Z,37.28
2018-10-12T03:08:58.905Z,36.80
2018-10-12T03:09:30.041Z,36.75
2018-10-12T03:10:01.200Z,38.60
2018-10-12T03:10:32.328Z,37.38
2018-10-12T03:11:03.468Z,37.60
2018-10-12T03:11:34.569Z,33.90
2018-10-12T03:12:05.709Z,39.00
2018-10-12T03:12:36.808Z,36.65
2018-10-12T03:13:07.929Z,35.23
2018-10-12T03:13:39.035Z,34.33
2018-10-12T03:14:10.158Z,36.25
2018-10-12T03:14:41.278Z,38.83
2018-10-12T03:15:12.475Z,34.70
2018-10-12T03:15:43.585Z,36.38
2018-10-12T03:16:14.701Z,32.85
2018-10-12T03:16:45.835Z,35.28
2018-10-12T03:17:16.939Z,37.50
2018-10-12T03:17:48.042Z,36.13
2018-10-12T03:18:19.222Z,35.75
2018-10-12T03:18:50.404Z,39.25
2018-10-12T03:19:21.538Z,33.23
2018-10-12T03:19:52.639Z,38.35
2018-10-12T03:20:23.771Z,38.65
2018-10-12T03:20:54.879Z,35.73
2018-10-12T03:21:26.035Z,37.00
2018-10-12T03:21:57.150Z,33.18
2018-10-12T03:22:28.290Z,37.98
2018-10-12T03:22:59.441Z,37.42
2018-10-12T03:23:30.582Z,37.83
2018-10-12T03:24:01.788Z,35.45
2018-10-12T03:24:32.913Z,36.48
2018-10-12T03:25:04.075Z,35.65
2018-10-12T03:25:35.204Z,35.13
2018-10-12T03:26:06.318Z,36.13
2018-10-12T03:26:37.480Z,40.35
2018-10-12T03:27:08.614Z,37.60
2018-10-12T03:27:39.745Z,32.95
2018-10-12T03:28:10.901Z,35.40
2018-10-12T03:28:42.039Z,35.65
2018-10-12T03:29:13.215Z,34.15
2018-10-12T03:29:44.362Z,33.23
2018-10-12T03:30:15.517Z,37.25
2018-10-12T03:30:46.627Z,34.67
2018-10-12T03:31:17.757Z,31.73
2018-10-12T03:31:48.963Z,35.17
2018-10-12T03:32:20.097Z,34.43
2018-10-12T03:32:51.198Z,37.93
2018-10-12T03:33:22.303Z,38.88
2018-10-12T03:33:53.458Z,32.78
2018-10-12T03:34:24.671Z,35.92
2018-10-12T03:34:55.819Z,38.05
2018-10-12T03:35:26.933Z,32.80
2018-10-12T03:35:58.079Z,36.50
2018-10-12T03:36:29.209Z,33.33
2018-10-12T03:37:00.413Z,33.78
2018-10-12T03:37:31.575Z,34.38
2018-10-12T03:38:02.709Z,36.30
2018-10-12T03:38:33.887Z,34.80
2018-10-12T03:39:05.635Z,35.08
2018-10-12T03:39:36.860Z,34.75
2018-10-12T03:40:07.985Z,37.48
2018-10-12T03:40:39.089Z,35.60
2018-10-12T03:41:10.271Z,32.78
2018-10-12T03:41:41.493Z,34.70
2018-10-12T03:42:12.641Z,33.58
2018-10-12T03:42:43.811Z,33.42
2018-10-12T03:43:14.931Z,33.40
2018-10-12T03:43:46.105Z,32.95
2018-10-12T03:44:17.231Z,35.98
2018-10-12T03:44:48.329Z,35.98
2018-10-12T03:45:19.463Z,33.55
2018-10-12T03:45:50.587Z,36.35
2018-10-12T03:46:21.727Z,31.23
2018-10-12T03:46:52.834Z,32.40
2018-10-12T03:47:23.974Z,33.65
2018-10-12T03:47:55.110Z,32.23
2018-10-12T03:48:26.250Z,32.80
2018-10-12T03:48:57.367Z,35.08
2018-10-12T03:49:28.474Z,34.18
2018-10-12T03:49:59.595Z,36.13
2018-10-12T03:50:30.880Z,33.73
2018-10-12T03:51:01.985Z,38.48
2018-10-12T03:51:33.108Z,32.65
2018-10-12T03:52:04.272Z,36.48
2018-10-12T03:52:35.421Z,35.43
2018-10-12T03:53:06.528Z,39.65
2018-10-12T03:53:37.641Z,34.40
2018-10-12T03:54:08.746Z,34.70
2018-10-12T03:54:40.071Z,32.88
2018-10-12T03:55:11.791Z,35.68
2018-10-12T03:55:42.946Z,39.38
2018-10-12T03:56:14.105Z,36.98
2018-10-12T03:56:45.218Z,36.00
2018-10-12T03:57:16.334Z,37.30
2018-10-12T03:57:47.488Z,34.80
2018-10-12T03:58:18.589Z,35.95
2018-10-12T03:58:49.733Z,42.08
2018-10-12T03:59:20.830Z,35.13
2018-10-12T03:59:51.955Z,34.53
2018-10-12T04:00:23.167Z,38.13
2018-10-12T04:00:54.291Z,36.48
2018-10-12T04:01:25.426Z,33.18
2018-10-12T04:01:56.535Z,34.18
2018-10-12T04:02:27.665Z,33.80
2018-10-12T04:02:58.827Z,32.85
2018-10-12T04:03:29.943Z,37.88
2018-10-12T04:04:01.038Z,36.65
2018-10-12T04:04:32.137Z,33.73
2018-10-12T04:05:03.244Z,32.60
2018-10-12T04:05:34.439Z,31.30
2018-10-12T04:06:05.609Z,36.33
2018-10-12T04:06:36.775Z,30.75
2018-10-12T04:07:07.881Z,33.92
2018-10-12T04:07:39.042Z,33.83
2018-10-12T04:08:10.202Z,32.90
2018-10-12T04:08:41.300Z,30.55
2018-10-12T04:09:12.446Z,32.00
2018-10-12T04:09:43.546Z,33.73
2018-10-12T04:10:14.675Z,34.13
2018-10-12T04:10:45.917Z,32.58
2018-10-12T04:11:17.035Z,35.03
2018-10-12T04:11:48.147Z,34.25
2018-10-12T04:12:19.296Z,30.37
2018-10-12T04:12:50.374Z,34.80
2018-10-12T04:13:21.491Z,34.05
2018-10-12T04:13:52.596Z,31.12
2018-10-12T04:14:23.758Z,33.23
2018-10-12T04:14:54.872Z,31.85
2018-10-12T04:15:27.617Z,33.78
2018-10-12T04:15:58.757Z,32.00
2018-10-12T04:16:29.872Z,33.70
2018-10-12T04:17:00.996Z,34.65
2018-10-12T04:17:32.165Z,34.18
2018-10-12T04:18:03.261Z,33.33
2018-10-12T04:18:34.399Z,36.17
2018-10-12T04:19:05.519Z,34.20
2018-10-12T04:19:36.640Z,34.45
2018-10-12T04:20:07.781Z,36.80
2018-10-12T04:20:38.906Z,33.28
2018-10-12T04:21:10.246Z,35.98
2018-10-12T04:21:41.361Z,31.87
2018-10-12T04:22:12.471Z,34.30
2018-10-12T04:22:43.582Z,33.23
2018-10-12T04:23:14.712Z,36.17
2018-10-12T04:23:45.867Z,38.02
2018-10-12T04:24:16.983Z,31.82
2018-10-12T04:24:48.118Z,37.30
2018-10-12T04:25:19.279Z,34.83
2018-10-12T04:25:50.375Z,35.73
2018-10-12T04:26:21.521Z,38.95
2018-10-12T04:26:52.684Z,35.52
2018-10-12T04:27:23.799Z,33.80
2018-10-12T04:27:54.923Z,36.13
2018-10-12T04:28:26.058Z,32.98
2018-10-12T04:28:57.154Z,33.08
2018-10-12T04:29:28.269Z,33.23
2018-10-12T04:29:59.373Z,35.33
2018-10-12T04:30:30.503Z,36.25
2018-10-12T04:31:01.606Z,34.27
2018-10-12T04:31:32.773Z,32.55
2018-10-12T04:32:04.151Z,34.58
2018-10-12T04:32:35.257Z,31.87
2018-10-12T04:33:06.366Z,31.82
2018-10-12T04:33:37.490Z,33.80
2018-10-12T04:34:08.619Z,34.35
2018-10-12T04:34:40.477Z,33.18
2018-10-12T04:35:11.604Z,31.42
2018-10-12T04:35:42.754Z,33.25
2018-10-12T04:36:13.919Z,33.10
2018-10-12T04:36:45.089Z,36.00
2018-10-12T04:37:16.225Z,33.90
2018-10-12T04:37:47.376Z,32.28
2018-10-12T04:38:18.522Z,32.48
2018-10-12T04:38:49.643Z,30.60
2018-10-12T04:39:20.768Z,31.70
2018-10-12T04:39:51.918Z,32.40
2018-10-12T04:40:23.043Z,34.70
2018-10-12T04:40:54.144Z,31.57
2018-10-12T04:41:25.266Z,32.28
2018-10-12T04:41:56.399Z,32.95
2018-10-12T04:42:27.521Z,35.30
2018-10-12T04:42:58.762Z,30.62
2018-10-12T04:43:29.863Z,31.80
2018-10-12T04:44:00.961Z,33.48
2018-10-12T04:44:32.124Z,31.97
2018-10-12T04:45:03.250Z,31.50
2018-10-12T04:45:34.370Z,32.65
2018-10-12T04:46:05.552Z,31.87
2018-10-12T04:46:36.653Z,34.58
2018-10-12T04:47:07.847Z,31.68
2018-10-12T04:47:38.968Z,33.45
2018-10-12T04:48:10.179Z,34.33
2018-10-12T04:48:41.299Z,33.10
2018-10-12T04:49:12.409Z,31.27
2018-10-12T04:49:43.563Z,32.98
2018-10-12T04:50:14.724Z,31.17
2018-10-12T04:50:45.829Z,32.50
2018-10-12T04:51:16.970Z,30.68
2018-10-12T04:51:48.079Z,34.85
2018-10-12T04:52:19.196Z,31.90
2018-10-12T04:52:50.343Z,33.35
2018-10-12T04:53:21.542Z,34.43
2018-10-12T04:53:52.733Z,33.45
2018-10-12T04:54:23.914Z,33.80
2018-10-12T04:54:55.099Z,34.08
2018-10-12T04:55:26.223Z,33.33
2018-10-12T04:55:57.339Z,33.98
2018-10-12T04:56:28.461Z,33.85
2018-10-12T04:56:59.590Z,31.73
2018-10-12T04:57:30.709Z,32.38
2018-10-12T04:58:01.820Z,35.52
2018-10-12T04:58:32.935Z,36.15
2018-10-12T04:59:04.085Z,34.15
2018-10-12T04:59:35.215Z,36.05
2018-10-12T05:00:06.345Z,35.23
2018-10-12T05:00:37.460Z,34.10
2018-10-12T05:01:08.643Z,38.70
2018-10-12T05:01:39.785Z,35.70
2018-10-12T05:02:10.923Z,37.90
2018-10-12T05:02:42.085Z,35.92
2018-10-12T05:03:13.216Z,37.20
2018-10-12T05:03:44.354Z,38.25
2018-10-12T05:04:15.457Z,34.13
2018-10-12T05:04:46.606Z,34.30
2018-10-12T05:05:17.737Z,41.68
2018-10-12T05:05:49.084Z,35.55
2018-10-12T05:06:20.211Z,37.33
2018-10-12T05:06:51.957Z,34.73
2018-10-12T05:07:23.196Z,38.60
2018-10-12T05:07:54.320Z,38.45
2018-10-12T05:08:25.500Z,35.45
2018-10-12T05:08:56.630Z,35.20
2018-10-12T05:09:27.788Z,34.43
2018-10-12T05:09:58.898Z,37.48
2018-10-12T05:10:30.845Z,33.92
2018-10-12T05:11:02.030Z,39.23
2018-10-12T05:11:33.177Z,34.40
2018-10-12T05:12:04.306Z,40.15
2018-10-12T05:12:35.439Z,38.40
2018-10-12T05:13:06.591Z,48.55
2018-10-12T05:13:37.706Z,38.78
2018-10-12T05:14:08.836Z,44.67
2018-10-12T05:14:39.946Z,37.73
2018-10-12T05:15:11.086Z,35.25
2018-10-12T05:15:42.238Z,36.58
2018-10-12T05:16:13.399Z,38.78
2018-10-12T05:16:44.512Z,38.67
2018-10-12T05:17:15.677Z,35.70
2018-10-12T05:17:46.822Z,37.05
2018-10-12T05:18:17.963Z,35.78
2018-10-12T05:18:49.125Z,39.53
2018-10-12T05:19:20.279Z,41.55
2018-10-12T05:19:51.384Z,33.50
2018-10-12T05:20:22.513Z,36.83
2018-10-12T05:20:53.722Z,32.73
2018-10-12T05:21:24.855Z,37.08
2018-10-12T05:21:56.115Z,34.27
2018-10-12T05:22:27.159Z,35.55
2018-10-12T05:22:58.279Z,35.43
2018-10-12T05:23:29.520Z,35.95
2018-10-12T05:24:00.657Z,40.75
2018-10-12T05:24:31.841Z,37.38
2018-10-12T05:25:02.958Z,40.08
2018-10-12T05:25:34.092Z,33.78
2018-10-12T05:26:05.294Z,40.05
2018-10-12T05:26:36.402Z,34.27
2018-10-12T05:27:07.508Z,37.88
2018-10-12T05:27:38.615Z,37.88
2018-10-12T05:28:09.720Z,36.13
2018-10-12T05:28:40.849Z,34.48
2018-10-12T05:29:11.972Z,36.60
2018-10-12T05:29:43.094Z,38.33
2018-10-12T05:30:14.329Z,34.00
2018-10-12T05:30:45.397Z,35.68
2018-10-12T05:31:16.544Z,38.10
2018-10-12T05:31:47.657Z,38.13
2018-10-12T05:32:18.782Z,37.17
2018-10-12T05:32:49.891Z,33.55
2018-10-12T05:33:21.019Z,37.45
2018-10-12T05:33:52.135Z,37.23
2018-10-12T05:34:23.272Z,38.40
2018-10-12T05:34:54.435Z,37.70
2018-10-12T05:35:25.641Z,39.45
2018-10-12T05:35:56.819Z,42.03
2018-10-12T05:36:28.003Z,47.13
2018-10-12T05:36:59.186Z,44.38
2018-10-12T05:37:30.313Z,53.13
2018-10-12T05:38:01.438Z,42.35
2018-10-12T05:38:32.576Z,41.55
2018-10-12T05:39:03.763Z,35.78
2018-10-12T05:39:34.865Z,37.67
2018-10-12T05:40:05.991Z,43.90
2018-10-12T05:40:37.093Z,40.83
2018-10-12T05:41:08.227Z,42.62
2018-10-12T05:41:39.403Z,40.55
2018-10-12T05:42:10.554Z,49.03
2018-10-12T05:42:41.728Z,43.85
2018-10-12T05:43:12.955Z,40.38
2018-10-12T05:43:44.046Z,48.60
2018-10-12T05:44:15.263Z,42.48
2018-10-12T05:44:46.420Z,39.90
2018-10-12T05:45:17.669Z,44.38
2018-10-12T05:45:48.784Z,50.33
2018-10-12T05:46:19.935Z,50.03
2018-10-12T05:46:51.123Z,41.28
2018-10-12T05:47:22.240Z,40.17
2018-10-12T05:47:53.356Z,43.60
2018-10-12T05:48:24.549Z,42.73
2018-10-12T05:48:55.932Z,37.67
2018-10-12T05:49:26.966Z,38.40
2018-10-12T05:49:58.137Z,42.00
2018-10-12T05:50:29.238Z,45.63
2018-10-12T05:51:00.355Z,51.18
2018-10-12T05:51:31.503Z,46.77
2018-10-12T05:52:02.699Z,51.45
2018-10-12T05:52:35.003Z,53.40
2018-10-12T05:53:06.156Z,51.00
2018-10-12T05:53:37.279Z,39.10
2018-10-12T05:54:08.427Z,44.42
2018-10-12T05:54:39.779Z,37.90
2018-10-12T05:55:10.885Z,39.35
2018-10-12T05:55:42.049Z,42.00
2018-10-12T05:56:13.226Z,40.17
2018-10-12T05:56:44.367Z,39.67
2018-10-12T05:57:15.467Z,40.10
2018-10-12T05:57:46.677Z,41.85
2018-10-12T05:58:17.801Z,40.48
2018-10-12T05:58:48.948Z,38.98
2018-10-12T05:59:20.115Z,38.88
2018-10-12T05:59:51.241Z,35.52
2018-10-12T06:00:22.352Z,34.75
2018-10-12T06:00:53.466Z,35.65
2018-10-12T06:01:24.661Z,35.58
2018-10-12T06:01:55.762Z,35.00
2018-10-12T06:02:26.915Z,32.38
2018-10-12T06:02:58.179Z,37.55
2018-10-12T06:03:29.459Z,36.40
2018-10-12T06:04:01.490Z,32.90
2018-10-12T06:04:32.609Z,35.30
2018-10-12T06:05:03.809Z,34.98
2018-10-12T06:05:35.403Z,33.67
2018-10-12T06:06:06.565Z,37.75
2018-10-12T06:06:37.735Z,37.17
2018-10-12T06:07:08.900Z,38.05
2018-10-12T06:07:40.010Z,35.20
2018-10-12T06:08:11.139Z,34.53
2018-10-12T06:08:42.267Z,41.37
2018-10-12T06:09:13.443Z,37.58
2018-10-12T06:09:44.647Z,34.13
2018-10-12T06:10:15.720Z,35.15
2018-10-12T06:10:46.834Z,35.95
2018-10-12T06:11:17.965Z,34.23
2018-10-12T06:11:49.113Z,36.65
2018-10-12T06:12:20.229Z,31.68
2018-10-12T06:12:51.455Z,32.93
2018-10-12T06:13:22.595Z,31.05
2018-10-12T06:13:55.416Z,30.95
2018-10-12T06:14:26.626Z,30.25
2018-10-12T06:14:57.851Z,29.65
2018-10-12T06:15:29.031Z,30.23
2018-10-12T06:16:00.176Z,30.37
2018-10-12T06:16:31.396Z,28.98
2018-10-12T06:17:03.107Z,33.35
2018-10-12T06:17:34.222Z,28.98
2018-10-12T06:18:05.342Z,32.45
2018-10-12T06:18:36.455Z,31.85
2018-10-12T06:19:07.606Z,31.17
2018-10-12T06:19:38.734Z,27.17
2018-10-12T06:20:09.833Z,25.92
2018-10-12T06:20:40.979Z,26.20
2018-10-12T06:21:12.105Z,25.15
2018-10-12T06:21:43.341Z,31.27
2018-10-12T06:22:14.412Z,25.45
2018-10-12T06:22:47.924Z,29.23
2018-10-12T06:23:20.017Z,30.80
2018-10-12T06:23:51.176Z,25.82
2018-10-12T06:24:22.364Z,30.23
2018-10-12T06:24:53.527Z,25.80
2018-10-12T06:25:29.168Z,30.43
2018-10-12T06:26:00.366Z,29.02
2018-10-12T06:26:31.494Z,27.45
2018-10-12T06:27:02.614Z,25.75
2018-10-12T06:27:33.967Z,26.60
2018-10-12T06:28:05.199Z,28.10
2018-10-12T06:28:36.352Z,26.02
2018-10-12T06:29:07.461Z,27.67
2018-10-12T06:29:38.570Z,27.93
2018-10-12T06:30:10.719Z,28.23
2018-10-12T06:30:41.840Z,27.80
2018-10-12T06:31:13.015Z,28.70
2018-10-12T06:31:44.163Z,27.45
2018-10-12T06:32:15.343Z,29.87
2018-10-12T06:32:46.506Z,29.77
2018-10-12T06:33:17.644Z,26.82
2018-10-12T06:33:48.902Z,27.82
2018-10-12T06:34:20.039Z,28.73
2018-10-12T06:34:51.382Z,27.42
2018-10-12T06:35:22.535Z,28.00
2018-10-12T06:35:53.718Z,29.98
2018-10-12T06:36:24.947Z,30.77
2018-10-12T06:36:56.077Z,31.17
2018-10-12T06:37:27.263Z,30.95
2018-10-12T06:37:58.416Z,27.55
2018-10-12T06:38:29.510Z,28.07
2018-10-12T06:39:00.666Z,30.08
2018-10-12T06:39:31.794Z,29.32
2018-10-12T06:40:02.994Z,30.70
2018-10-12T06:40:34.141Z,29.23
2018-10-12T06:41:43.001Z,27.85
2018-10-12T06:42:13.973Z,32.78